Broadmoor, Louisiana
Current Conditions -  °F | °C
As of 1:15 AM on Monday 24 Nov 2014 (Local Time) from KVSH Reporting Station
Broken Clouds Broken Clouds  
Wind Chill: 68°   Ceiling: 500
Heat Index: 68°   Visibility: 8mi
Dew Point: 63°   Wind: 8mph
Humidity: 83%   Direction: 210°SSW
Pressure: 29.76"   Gusts: NA
Location:  29.9521°N, 90.1034°W
Report Text: KVSH 240715Z AUTO 21007KT 8SM BKN005 20/17 A2976 RMK AO1
Loading
Personal Weather Stations






























Interactive Weather Map New forecast layout! Learn more

10-Day Weather Forecast

Advertisements
Track Severe Weather on mobile